CheckWX is a tool to help pilots better visualize weather data.  It is not intended as a substitute for an official pre-flight weather briefing.

08:47:46 UTC

KMGW TAF
Morgantown Municipal-Walter L Bill Hart Field Airport
Morgantown, West Virginia, USA
KMGW 180534Z 1806/1906 27004KT P6SM BKN050 FM181600 31008KT P6SM BKN050 FM190000 VRB04KT P6SM FEW050

Oct-18@
06:00 UTC

Oct-18 @ 06:00 UTC

Oct-18@
16:00 UTC

Oct-18 @ 16:00 UTC

KMGW 180534Z 1806/1906 27004KT P6SM BKN050
Wind
  • 270° at 4 KTS
Cloud Levels
  • Broken at 5,000' AGL

Oct-18@
16:00 UTC

Oct-18 @ 16:00 UTC

Oct-19@
00:00 UTC

Oct-19 @ 00:00 UTC

FM181600 31008KT P6SM BKN050

From

From Standard forecast or significant change

Wind
  • 310° at 8 KTS
Cloud Levels
  • Broken at 5,000' AGL

Oct-19@
00:00 UTC

Oct-19 @ 00:00 UTC

Oct-19@
06:00 UTC

Oct-19 @ 06:00 UTC

FM190000 VRB04KT P6SM FEW050

From

From Standard forecast or significant change

Wind
  • Variable at 4 KTS
Cloud Levels
  • Few at 5,000' AGL